Terminal Aerodrome Forecast
Issued by NWS

Home | Current Version | Previous Version | Text Only | Print | Product List | Glossary On
Versions: 1 2 3 4 5 6 7 8 9 10 11 12 13 14 15 16 17 18 19 20
028
FTUS42 KMLB 241737
TAFSUA
TAF
KSUA 241737Z 2418/2518 10016G24KT P6SM VCSH SCT040 BKN060
     FM250000 11011KT P6SM SCT035
     FM251500 12015G22KT P6SM SCT040=

USA.gov is the U.S. government's official web portal to all federal, state and local government web resources and services.